Time;durP1;ratioP1;P1;durP2;ratioP2;P2;SDS_P1;SDS_P2;PMS_P1;PMS_P2;Temp;Humidity;BMP_temperature;BMP_pressure;BME280_temperature;BME280_humidity;BME280_pressure;Samples;Min_cycle;Max_cycle;Signal;HPM_P1;HPM_P2
2022/08/02 00:00:55;;;;;;;2.05;1.08;;;26.30;91.30;;;;;;5031978;28;20107;-26
2022/08/02 00:03:20;;;;;;;2.97;1.50;;;26.30;91.20;;;;;;5031951;28;20030;-26
2022/08/02 00:05:46;;;;;;;2.25;1.10;;;26.20;91.20;;;;;;5031957;28;20040;-26
2022/08/02 00:08:12;;;;;;;3.13;1.40;;;26.20;91.20;;;;;;5035815;28;20026;-26
2022/08/02 00:10:37;;;;;;;2.53;1.15;;;26.20;91.20;;;;;;5035904;28;20029;-26
2022/08/02 00:13:03;;;;;;;3.35;1.00;;;26.20;91.20;;;;;;5035747;28;20052;-26
2022/08/02 00:15:29;;;;;;;1.00;0.85;;;26.20;91.20;;;;;;5035900;28;20026;-26
2022/08/02 00:17:55;;;;;;;2.53;1.08;;;26.20;91.20;;;;;;5035802;28;20026;-26
2022/08/02 00:20:20;;;;;;;3.08;1.25;;;26.20;91.20;;;;;;5035760;28;20030;-26
2022/08/02 00:22:46;;;;;;;1.90;1.10;;;26.20;91.20;;;;;;5035793;28;20040;-26
2022/08/02 00:25:11;;;;;;;2.72;1.20;;;26.20;91.20;;;;;;5035719;28;20497;-26
2022/08/02 00:27:37;;;;;;;2.45;1.40;;;26.20;91.20;;;;;;5035506;28;20029;-26
2022/08/02 00:30:03;;;;;;;1.95;1.30;;;26.10;91.20;;;;;;5035443;28;20026;-26
2022/08/02 00:32:29;;;;;;;1.52;0.95;;;26.20;91.20;;;;;;5035508;28;20026;-26
2022/08/02 00:34:55;;;;;;;2.13;0.95;;;26.10;91.20;;;;;;5035578;28;20026;-26
2022/08/02 00:37:20;;;;;;;1.88;1.02;;;26.10;91.20;;;;;;5035308;28;20112;-26
2022/08/02 00:39:46;;;;;;;2.20;1.20;;;26.10;91.10;;;;;;5035291;28;20025;-26
2022/08/02 00:42:14;;;;;;;4.30;1.20;;;26.20;91.20;;;;;;5035355;28;20036;-26
2022/08/02 00:44:40;;;;;;;2.50;1.30;;;26.10;91.10;;;;;;5035344;28;20504;-26
2022/08/02 00:47:05;;;;;;;1.38;1.05;;;26.10;91.10;;;;;;5035323;28;20029;-26
2022/08/02 00:49:31;;;;;;;2.17;1.00;;;26.10;91.10;;;;;;5035204;28;20036;-26
2022/08/02 00:51:57;;;;;;;2.38;1.10;;;26.10;91.10;;;;;;5035249;28;20033;-26
2022/08/02 00:54:22;;;;;;;1.77;0.93;;;26.10;91.20;;;;;;5035203;28;20387;-26
2022/08/02 00:56:48;;;;;;;2.30;1.00;;;26.10;91.10;;;;;;5035048;28;20025;-26
2022/08/02 00:59:14;;;;;;;3.20;1.20;;;26.10;91.10;;;;;;5034886;28;20026;-26
2022/08/02 01:01:40;;;;;;;2.47;1.20;;;26.10;91.10;;;;;;5035107;28;20037;-26
2022/08/02 01:04:11;;;;;;;1.70;1.00;;;26.10;91.20;;;;;;5035049;28;20116;-25
2022/08/02 01:06:39;;;;;;;1.48;1.15;;;26.10;91.20;;;;;;5035053;28;20522;-25
2022/08/02 01:09:05;;;;;;;2.33;1.13;;;26.00;91.10;;;;;;5035250;28;20036;-25
2022/08/02 01:11:32;;;;;;;2.42;1.02;;;26.00;91.10;;;;;;5035054;28;20501;-25
2022/08/02 01:14:08;;;;;;;1.67;0.85;;;26.10;91.10;;;;;;5034826;28;20025;-25
2022/08/02 01:16:41;;;;;;;1.58;1.05;;;26.10;91.10;;;;;;5034828;28;20052;-25
2022/08/02 01:19:31;;;;;;;4.22;1.00;;;26.00;91.10;;;;;;5033768;28;20529;-25
2022/08/02 01:22:22;;;;;;;2.00;1.27;;;26.00;91.10;;;;;;5034695;28;20033;-25
2022/08/02 01:25:08;;;;;;;1.50;1.17;;;26.00;91.10;;;;;;5034682;28;20048;-25
2022/08/02 01:28:11;;;;;;;2.35;1.00;;;26.00;91.10;;;;;;5034534;28;20029;-25
2022/08/02 01:30:41;;;;;;;1.42;0.80;;;26.00;91.10;;;;;;5034504;28;20479;-25
2022/08/02 01:33:08;;;;;;;1.75;0.98;;;26.00;91.10;;;;;;5034450;28;20040;-25
2022/08/02 01:35:42;;;;;;;2.13;0.98;;;26.00;91.10;;;;;;5034514;28;20029;-25
2022/08/02 01:38:20;;;;;;;2.58;0.90;;;26.00;91.10;;;;;;5034175;28;20037;-25
2022/08/02 01:40:48;;;;;;;3.63;1.05;;;26.00;91.10;;;;;;5034320;28;20025;-25
2022/08/02 01:43:15;;;;;;;3.15;1.13;;;25.90;91.00;;;;;;5034312;28;20021;-25
2022/08/02 01:45:44;;;;;;;3.00;1.13;;;26.00;91.10;;;;;;5034313;28;20029;-25
2022/08/02 01:48:11;;;;;;;2.97;1.17;;;25.90;91.00;;;;;;5033989;28;20083;-25
2022/08/02 01:50:38;;;;;;;4.63;1.10;;;25.90;91.00;;;;;;5034184;28;20415;-25
2022/08/02 01:53:09;;;;;;;1.95;1.00;;;25.90;91.00;;;;;;5034044;28;20233;-25
2022/08/02 01:55:45;;;;;;;3.72;0.90;;;25.90;91.00;;;;;;5034373;28;20017;-25
2022/08/02 01:58:15;;;;;;;1.17;0.80;;;25.90;91.00;;;;;;5033829;28;20045;-25
2022/08/02 02:00:43;;;;;;;1.20;0.93;;;25.90;91.00;;;;;;5034047;28;20107;-25
2022/08/02 02:03:13;;;;;;;2.08;0.90;;;25.90;91.00;;;;;;5033954;28;20053;-25
2022/08/02 02:05:40;;;;;;;2.15;0.75;;;25.90;90.90;;;;;;5033848;28;20450;-25
2022/08/02 02:08:08;;;;;;;2.47;0.93;;;25.90;90.90;;;;;;5033772;28;20115;-25
2022/08/02 02:10:37;;;;;;;1.33;0.93;;;25.90;90.90;;;;;;5033771;28;20087;-25
2022/08/02 02:13:08;;;;;;;2.17;1.15;;;25.90;90.90;;;;;;5033615;28;20026;-25
2022/08/02 02:15:39;;;;;;;3.50;0.77;;;25.80;90.90;;;;;;5033761;28;20014;-25
2022/08/02 02:18:06;;;;;;;2.10;1.00;;;25.90;90.90;;;;;;5033565;28;20071;-25
2022/08/02 02:20:32;;;;;;;2.28;1.13;;;25.80;90.90;;;;;;5033536;28;20014;-25
2022/08/02 02:22:58;;;;;;;3.35;0.90;;;25.80;90.80;;;;;;5033551;28;20029;-25
2022/08/02 02:25:24;;;;;;;1.60;0.90;;;25.80;90.80;;;;;;5033655;28;20079;-25
2022/08/02 02:27:52;;;;;;;1.55;0.82;;;25.80;90.80;;;;;;5033303;28;20034;-25
2022/08/02 02:30:18;;;;;;;2.60;1.00;;;25.80;90.80;;;;;;5033279;28;20505;-25
2022/08/02 02:32:48;;;;;;;1.33;0.63;;;25.80;90.70;;;;;;5033235;28;20116;-25
2022/08/02 02:35:16;;;;;;;1.00;0.80;;;25.80;90.70;;;;;;5033335;28;20021;-25
2022/08/02 02:37:43;;;;;;;1.05;0.70;;;25.80;90.70;;;;;;5033121;28;20037;-25
2022/08/02 02:40:10;;;;;;;1.63;0.90;;;25.80;90.70;;;;;;5033104;28;20029;-25
2022/08/02 02:42:37;;;;;;;2.30;0.90;;;25.70;90.60;;;;;;5033171;28;20029;-25
2022/08/02 02:45:03;;;;;;;2.25;0.90;;;25.80;90.60;;;;;;5033034;28;20040;-25
2022/08/02 02:47:31;;;;;;;1.15;0.98;;;25.70;90.60;;;;;;5033077;28;20040;-25
2022/08/02 02:49:58;;;;;;;1.48;0.70;;;25.80;90.60;;;;;;5032884;28;20024;-25
2022/08/02 02:52:25;;;;;;;1.13;0.75;;;25.80;90.60;;;;;;5032982;28;20025;-25
2022/08/02 02:54:52;;;;;;;1.75;0.80;;;25.70;90.50;;;;;;5033003;28;20024;-25
2022/08/02 02:57:19;;;;;;;1.35;0.88;;;25.70;90.50;;;;;;5032844;28;20437;-25
2022/08/02 02:59:46;;;;;;;2.88;0.80;;;25.70;90.50;;;;;;5032629;28;20017;-25
2022/08/02 03:02:13;;;;;;;1.13;0.80;;;25.70;90.80;;;;;;5032854;28;20022;-25
2022/08/02 03:04:41;;;;;;;1.23;0.90;;;25.70;90.50;;;;;;5032887;28;20317;-25
2022/08/02 03:07:07;;;;;;;1.25;0.90;;;25.70;90.50;;;;;;5032784;28;20240;-25
2022/08/02 03:09:32;;;;;;;2.55;0.70;;;25.70;90.50;;;;;;5032556;28;20025;-25
2022/08/02 03:11:58;;;;;;;2.05;0.85;;;25.70;90.50;;;;;;5015014;28;20096;-25
2022/08/02 03:14:24;;;;;;;2.15;0.90;;;25.70;90.40;;;;;;5032626;28;20037;-25
2022/08/02 03:16:52;;;;;;;3.42;1.10;;;25.70;90.40;;;;;;5032558;28;20386;-25
2022/08/02 03:19:20;;;;;;;2.20;0.70;;;25.60;90.40;;;;;;5032357;28;20017;-25
2022/08/02 03:21:47;;;;;;;2.15;1.00;;;25.70;90.40;;;;;;5032618;28;20084;-25
2022/08/02 03:24:13;;;;;;;1.55;0.70;;;25.60;90.40;;;;;;5032488;28;20029;-25
2022/08/02 03:26:39;;;;;;;1.90;0.70;;;25.60;90.30;;;;;;5032276;28;20026;-25
2022/08/02 03:29:06;;;;;;;1.33;0.60;;;25.70;90.40;;;;;;5032131;28;20021;-25
2022/08/02 03:31:32;;;;;;;1.67;0.80;;;25.70;90.40;;;;;;5032234;28;20030;-25
2022/08/02 03:33:59;;;;;;;1.40;0.73;;;25.60;90.30;;;;;;5032333;28;20036;-25
2022/08/02 03:36:29;;;;;;;1.20;0.80;;;25.60;90.30;;;;;;5032506;28;20375;-25
2022/08/02 03:38:56;;;;;;;1.48;0.80;;;25.60;90.30;;;;;;5031914;28;20379;-25
2022/08/02 03:41:22;;;;;;;3.05;0.80;;;25.60;90.30;;;;;;5032188;28;20022;-25
2022/08/02 03:43:49;;;;;;;1.27;0.70;;;25.60;90.30;;;;;;5032134;28;20103;-25
2022/08/02 03:46:18;;;;;;;1.70;0.70;;;25.60;90.30;;;;;;5032126;28;20022;-25
2022/08/02 03:48:45;;;;;;;3.70;0.85;;;25.60;90.20;;;;;;5031820;28;20475;-25
2022/08/02 03:51:12;;;;;;;3.60;0.88;;;25.60;90.20;;;;;;5032021;28;20025;-25
2022/08/02 03:53:38;;;;;;;1.48;0.90;;;25.60;90.20;;;;;;5031964;28;20025;-25
2022/08/02 03:56:05;;;;;;;0.80;0.60;;;25.60;90.20;;;;;;5031882;28;20087;-25
2022/08/02 03:58:32;;;;;;;2.83;0.90;;;25.60;90.20;;;;;;5031773;28;20018;-25
2022/08/02 04:00:58;;;;;;;1.00;0.60;;;25.50;90.10;;;;;;5032095;28;20440;-25
2022/08/02 04:03:24;;;;;;;1.35;0.80;;;25.60;90.10;;;;;;5031980;28;20026;-25
2022/08/02 04:05:50;;;;;;;0.93;0.50;;;25.50;90.10;;;;;;5031916;28;20422;-25
2022/08/02 04:08:15;;;;;;;1.42;0.88;;;25.50;90.10;;;;;;5031890;28;20083;-25
2022/08/02 04:13:27;;;;;;;;;;;25.50;90.10;;;;;;5032285;28;20087;-25
2022/08/02 04:15:57;;;;;;;2.83;0.70;;;25.50;90.10;;;;;;5032166;28;19904;-25
2022/08/02 04:18:27;;;;;;;0.73;0.60;;;25.50;90.10;;;;;;5031603;28;20029;-25
2022/08/02 04:20:55;;;;;;;0.98;0.77;;;25.50;90.10;;;;;;5031668;28;20028;-25
2022/08/02 04:23:23;;;;;;;3.22;0.75;;;25.50;90.00;;;;;;5031758;28;20501;-25
2022/08/02 04:25:49;;;;;;;1.48;0.80;;;25.50;90.00;;;;;;5031794;28;20095;-25
2022/08/02 04:28:15;;;;;;;1.73;0.88;;;25.50;90.00;;;;;;5031478;28;20026;-25
2022/08/02 04:30:42;;;;;;;1.98;0.70;;;25.40;90.00;;;;;;5031739;28;20033;-25
2022/08/02 04:33:08;;;;;;;1.10;0.80;;;25.40;90.00;;;;;;5031593;28;20082;-25
2022/08/02 04:35:34;;;;;;;1.50;0.70;;;25.50;90.00;;;;;;5031577;28;20463;-25
2022/08/02 04:38:00;;;;;;;3.78;0.80;;;25.50;90.00;;;;;;5031320;28;20112;-25
2022/08/02 04:40:26;;;;;;;1.17;0.60;;;25.40;90.00;;;;;;5031434;28;20390;-25
2022/08/02 04:42:52;;;;;;;1.20;0.70;;;25.40;90.00;;;;;;5031584;28;20037;-25
2022/08/02 04:45:18;;;;;;;1.80;0.90;;;25.40;90.00;;;;;;5031595;28;20021;-25
2022/08/02 04:47:44;;;;;;;1.20;0.75;;;25.40;90.00;;;;;;5031407;28;20441;-25
2022/08/02 04:50:10;;;;;;;1.20;0.60;;;25.40;90.00;;;;;;5031384;28;20026;-25
2022/08/02 04:52:35;;;;;;;2.22;0.80;;;25.40;90.00;;;;;;5031471;28;20029;-25
2022/08/02 04:55:01;;;;;;;1.00;0.73;;;25.40;90.00;;;;;;5034884;28;20048;-25
2022/08/02 05:00:11;;;;;;;0.98;0.65;;;25.30;90.00;;;;;;5035113;28;20031;-25
2022/08/02 05:02:37;;;;;;;1.17;0.63;;;25.40;90.00;;;;;;5034979;28;20030;-25
2022/08/02 05:05:03;;;;;;;1.65;0.88;;;25.30;90.00;;;;;;5035097;28;20097;-25
2022/08/02 05:07:28;;;;;;;1.30;0.82;;;25.40;90.00;;;;;;5034932;28;20022;-25
2022/08/02 05:09:54;;;;;;;1.48;0.75;;;25.30;90.00;;;;;;5034766;28;20084;-25
2022/08/02 05:12:21;;;;;;;2.25;0.70;;;25.30;90.00;;;;;;5034888;28;20467;-25
2022/08/02 05:14:47;;;;;;;1.83;0.88;;;25.30;90.00;;;;;;5034976;28;20064;-25
2022/08/02 05:17:13;;;;;;;1.42;0.73;;;25.30;90.00;;;;;;5034657;28;20014;-25
2022/08/02 05:19:39;;;;;;;1.52;0.75;;;25.30;90.00;;;;;;5034710;28;20382;-25
2022/08/02 05:22:04;;;;;;;1.08;0.70;;;25.30;90.00;;;;;;5034763;28;20391;-25
2022/08/02 05:24:30;;;;;;;0.93;0.60;;;25.30;90.00;;;;;;5034662;28;20030;-25
2022/08/02 05:26:55;;;;;;;1.08;0.70;;;25.30;90.00;;;;;;5034583;28;20446;-25
2022/08/02 05:29:22;;;;;;;2.45;0.77;;;25.30;90.10;;;;;;5034427;28;20079;-25
2022/08/02 05:31:47;;;;;;;2.03;0.93;;;25.30;90.10;;;;;;5034440;28;20035;-25
2022/08/02 05:34:13;;;;;;;1.38;0.70;;;25.30;90.10;;;;;;5034518;28;20021;-25
2022/08/02 05:36:39;;;;;;;0.80;0.77;;;25.30;90.10;;;;;;5034456;28;20026;-26
2022/08/02 05:39:05;;;;;;;1.75;0.70;;;25.30;90.10;;;;;;5041504;22;20037;-24
2022/08/02 05:41:30;;;;;;;2.05;0.80;;;25.30;90.10;;;;;;5034427;28;20026;-24
2022/08/02 05:43:56;;;;;;;2.13;0.88;;;25.20;90.10;;;;;;5034257;28;20413;-25
2022/08/02 05:46:21;;;;;;;1.23;0.90;;;25.30;90.10;;;;;;5034325;28;20029;-25
2022/08/02 05:48:47;;;;;;;0.80;0.60;;;25.30;90.10;;;;;;5034156;28;20112;-25
2022/08/02 05:51:25;;;;;;;1.40;1.00;;;25.30;90.10;;;;;;5034230;28;20028;-25
2022/08/02 05:53:54;;;;;;;0.95;0.75;;;25.30;90.10;;;;;;5034199;28;20044;-25
2022/08/02 05:56:32;;;;;;;2.55;0.82;;;25.30;90.10;;;;;;5034109;28;20026;-25
2022/08/02 05:59:03;;;;;;;1.52;0.70;;;25.30;90.10;;;;;;5033862;28;20025;-25
2022/08/02 06:01:35;;;;;;;1.02;0.80;;;25.30;90.20;;;;;;5034041;28;20026;-25
2022/08/02 06:04:05;;;;;;;2.92;1.00;;;25.30;90.20;;;;;;5033665;28;20118;-24
2022/08/02 06:06:32;;;;;;;0.85;0.70;;;25.30;90.20;;;;;;5033888;28;20482;-24
2022/08/02 06:09:01;;;;;;;3.20;0.90;;;25.30;90.20;;;;;;5033478;28;20032;-25
2022/08/02 06:11:37;;;;;;;3.15;1.15;;;25.10;90.70;;;;;;5033812;28;20425;-25
2022/08/02 06:14:05;;;;;;;2.38;1.02;;;24.70;91.40;;;;;;5033845;28;20105;-25
2022/08/02 06:16:32;;;;;;;3.70;1.30;;;24.30;92.10;;;;;;5033769;28;20021;-25
2022/08/02 06:18:59;;;;;;;1.85;1.10;;;24.00;92.50;;;;;;5033402;28;20021;-25
2022/08/02 06:21:26;;;;;;;3.35;1.30;;;23.70;93.00;;;;;;5033503;28;20026;-25
2022/08/02 06:23:54;;;;;;;2.40;1.20;;;23.40;93.50;;;;;;5033746;28;20390;-25
2022/08/02 06:26:20;;;;;;;6.22;2.05;;;23.20;94.00;;;;;;5033537;28;20467;-25
2022/08/02 06:28:47;;;;;;;4.35;1.30;;;23.10;94.40;;;;;;5033158;28;20109;-25
2022/08/02 06:31:14;;;;;;;2.17;1.27;;;23.00;94.70;;;;;;5033423;28;20018;-25
2022/08/02 06:33:40;;;;;;;2.13;0.98;;;22.90;94.80;;;;;;5033334;28;20025;-25
2022/08/02 06:36:17;;;;;;;2.78;1.30;;;22.90;94.90;;;;;;5033115;28;20568;-25
2022/08/02 06:38:55;;;;;;;2.55;1.27;;;22.90;95.10;;;;;;5032934;28;20033;-25
2022/08/02 06:41:23;;;;;;;7.03;1.75;;;22.90;95.00;;;;;;5033265;28;20029;-25
2022/08/02 06:44:09;;;;;;;1.77;1.17;;;22.90;95.30;;;;;;5015669;28;20091;-24
2022/08/02 06:46:36;;;;;;;2.78;1.23;;;22.80;95.10;;;;;;5032700;28;20033;-25
2022/08/02 06:49:03;;;;;;;5.20;1.30;;;22.90;95.20;;;;;;5033041;28;20126;-25
2022/08/02 06:51:28;;;;;;;6.50;1.65;;;23.00;95.20;;;;;;5032929;28;20079;-25
2022/08/02 06:53:54;;;;;;;6.00;1.90;;;23.00;95.30;;;;;;5032914;28;20426;-25
2022/08/02 06:56:20;;;;;;;5.70;1.60;;;23.00;95.20;;;;;;5027942;28;20463;-25
2022/08/02 06:58:45;;;;;;;4.30;1.85;;;23.00;95.20;;;;;;5028670;28;20487;-24
2022/08/02 07:01:12;;;;;;;3.42;1.70;;;23.10;94.60;;;;;;5031304;28;20483;-25
2022/08/02 07:03:39;;;;;;;3.22;1.50;;;23.20;94.40;;;;;;5032925;28;20053;-25
2022/08/02 07:06:08;;;;;;;1.88;1.30;;;23.40;94.10;;;;;;5032733;28;20025;-25
2022/08/02 07:08:37;;;;;;;7.13;1.75;;;23.60;93.90;;;;;;5032482;28;20036;-25
2022/08/02 07:11:03;;;;;;;4.72;1.50;;;23.60;93.90;;;;;;5032693;28;20025;-25
2022/08/02 07:13:29;;;;;;;4.03;1.40;;;23.80;93.70;;;;;;5032512;28;20447;-25
2022/08/02 07:15:55;;;;;;;4.93;1.20;;;23.90;93.40;;;;;;5031896;28;20116;-25
2022/08/02 07:18:24;;;;;;;2.58;1.38;;;24.10;93.30;;;;;;5032303;28;20029;-25
2022/08/02 07:20:50;;;;;;;1.63;1.10;;;24.20;93.00;;;;;;5032486;28;20026;-25
2022/08/02 07:23:16;;;;;;;2.60;1.30;;;24.30;92.80;;;;;;5032483;28;20036;-25
2022/08/02 07:25:43;;;;;;;1.77;1.10;;;24.40;92.70;;;;;;5032421;28;20104;-25
2022/08/02 07:28:10;;;;;;;5.82;1.30;;;24.50;92.60;;;;;;5032040;28;20036;-25
2022/08/02 07:30:35;;;;;;;1.67;1.10;;;24.60;92.50;;;;;;5032391;28;20032;-25
2022/08/02 07:33:02;;;;;;;4.85;1.23;;;24.60;92.40;;;;;;5032250;28;20029;-25
2022/08/02 07:35:28;;;;;;;2.80;1.10;;;24.70;92.40;;;;;;5032281;28;20026;-26
2022/08/02 07:37:53;;;;;;;3.47;0.95;;;24.70;92.30;;;;;;5032039;28;20112;-25
2022/08/02 07:40:20;;;;;;;3.83;1.02;;;24.80;92.20;;;;;;5032119;28;20025;-25
2022/08/02 07:42:50;;;;;;;2.03;1.17;;;24.80;92.20;;;;;;5032069;28;20029;-25
2022/08/02 07:45:17;;;;;;;3.78;1.25;;;24.90;92.20;;;;;;5032166;28;20457;-25
2022/08/02 07:47:44;;;;;;;2.80;1.30;;;24.90;92.20;;;;;;5032021;28;20083;-25
2022/08/02 07:50:11;;;;;;;2.85;1.25;;;24.90;92.10;;;;;;5032005;28;20478;-25
2022/08/02 07:52:37;;;;;;;3.78;1.60;;;24.90;92.00;;;;;;5031897;28;20026;-25
2022/08/02 07:55:04;;;;;;;2.45;1.00;;;24.90;92.00;;;;;;5032116;28;20033;-25
2022/08/02 07:57:29;;;;;;;1.63;1.15;;;24.90;92.00;;;;;;5031889;28;20036;-25
2022/08/02 07:59:55;;;;;;;3.63;1.10;;;24.90;92.30;;;;;;5031810;28;20025;-25
2022/08/02 08:02:23;;;;;;;2.20;1.10;;;24.90;91.90;;;;;;5031971;28;20057;-25
2022/08/02 08:04:49;;;;;;;2.53;1.30;;;24.90;91.90;;;;;;5031916;28;20078;-25
2022/08/02 08:07:15;;;;;;;2.90;1.38;;;24.90;91.90;;;;;;5031918;28;20030;-25
2022/08/02 08:09:40;;;;;;;4.15;1.13;;;24.90;91.90;;;;;;5013914;28;20025;-25
2022/08/02 08:12:10;;;;;;;1.67;0.98;;;24.90;91.90;;;;;;5031767;28;20045;-25
2022/08/02 08:14:37;;;;;;;4.03;1.00;;;25.00;91.90;;;;;;5031837;28;20030;-25
2022/08/02 08:17:04;;;;;;;2.92;1.23;;;25.00;91.90;;;;;;5031845;28;20096;-25
2022/08/02 08:19:30;;;;;;;2.08;1.20;;;25.00;91.80;;;;;;5031439;28;20426;-25
2022/08/02 08:21:58;;;;;;;1.55;1.00;;;25.00;91.80;;;;;;5031770;28;20025;-25
2022/08/02 08:24:24;;;;;;;2.50;1.17;;;25.00;91.80;;;;;;5032148;28;20056;-25
2022/08/02 08:26:50;;;;;;;2.08;1.25;;;25.00;91.80;;;;;;5031816;28;20061;-25
2022/08/02 08:29:15;;;;;;;1.85;1.27;;;25.10;91.80;;;;;;5035482;28;20022;-25
2022/08/02 08:31:41;;;;;;;1.77;1.30;;;25.10;91.80;;;;;;5035630;28;20061;-25
2022/08/02 08:34:06;;;;;;;2.58;1.20;;;25.10;91.80;;;;;;5035624;28;20441;-25
2022/08/02 08:36:32;;;;;;;2.50;1.10;;;25.20;91.70;;;;;;5035633;28;20032;-25
2022/08/02 08:38:58;;;;;;;2.13;1.35;;;25.20;91.70;;;;;;5035093;28;20407;-25
2022/08/02 08:41:23;;;;;;;3.38;1.15;;;25.20;91.70;;;;;;5017843;28;20064;-25
2022/08/02 08:43:49;;;;;;;2.55;1.40;;;25.20;91.70;;;;;;5035518;28;20061;-24
2022/08/02 08:46:26;;;;;;;1.48;1.00;;;25.20;91.60;;;;;;5035429;28;20029;-25
2022/08/02 08:48:55;;;;;;;2.38;1.00;;;25.30;91.60;;;;;;5035034;28;20037;-25
2022/08/02 08:51:22;;;;;;;2.60;1.30;;;25.30;91.60;;;;;;5035304;28;20498;-25
2022/08/02 08:53:50;;;;;;;3.67;1.27;;;25.30;91.60;;;;;;5035089;28;20145;-25
2022/08/02 08:56:16;;;;;;;1.27;1.15;;;25.40;91.50;;;;;;5017433;28;20025;-25
2022/08/02 08:58:46;;;;;;;2.08;1.10;;;25.40;91.50;;;;;;5034892;28;20508;-25
2022/08/02 09:01:13;;;;;;;2.22;1.17;;;25.40;91.50;;;;;;5035093;28;20583;-24
2022/08/02 09:03:38;;;;;;;1.20;1.10;;;25.50;91.50;;;;;;5017297;28;20029;-25
2022/08/02 09:06:04;;;;;;;1.48;1.10;;;25.50;91.40;;;;;;5034937;28;20148;-25
2022/08/02 09:08:30;;;;;;;1.23;0.93;;;25.50;91.40;;;;;;5034686;28;20037;-25
2022/08/02 09:10:56;;;;;;;2.78;1.20;;;25.50;91.40;;;;;;5034967;28;20022;-25
2022/08/02 09:13:30;;;;;;;1.27;1.05;;;25.50;91.30;;;;;;5035159;28;20520;-25
2022/08/02 09:15:58;;;;;;;4.30;1.25;;;25.50;91.30;;;;;;5034944;28;20022;-25
2022/08/02 09:18:32;;;;;;;3.53;1.20;;;25.50;91.20;;;;;;5034378;28;20526;-25
2022/08/02 09:21:01;;;;;;;3.87;1.20;;;25.60;91.20;;;;;;5035036;28;20625;-25
2022/08/02 09:23:35;;;;;;;1.40;1.20;;;25.60;91.20;;;;;;5034768;28;20475;-25
2022/08/02 09:26:07;;;;;;;1.42;1.17;;;25.60;91.20;;;;;;5034770;28;20022;-25
2022/08/02 09:28:37;;;;;;;1.88;1.50;;;25.60;91.10;;;;;;5034372;28;20030;-24
2022/08/02 09:31:11;;;;;;;3.90;1.35;;;25.60;91.10;;;;;;5034475;28;20025;-25
2022/08/02 09:33:38;;;;;;;2.53;1.40;;;25.60;91.10;;;;;;5034593;28;20474;-25
2022/08/02 09:36:12;;;;;;;2.33;1.20;;;25.70;91.10;;;;;;5034517;28;20064;-25
2022/08/02 09:38:39;;;;;;;1.77;1.38;;;25.70;91.10;;;;;;5033660;28;20529;-24
2022/08/02 09:41:18;;;;;;;1.65;1.13;;;25.70;91.00;;;;;;5034296;28;20038;-25
2022/08/02 09:43:43;;;;;;;2.00;1.30;;;25.70;91.00;;;;;;5034295;28;20037;-25
2022/08/02 09:46:10;;;;;;;1.35;1.13;;;25.70;91.00;;;;;;5034305;28;20031;-25
2022/08/02 09:48:46;;;;;;;3.22;1.30;;;25.80;91.00;;;;;;5033981;28;20060;-25
2022/08/02 09:51:11;;;;;;;1.95;1.40;;;25.80;91.00;;;;;;5034285;28;20029;-24
2022/08/02 09:53:38;;;;;;;2.10;1.30;;;25.80;90.90;;;;;;5034098;28;20360;-25
2022/08/02 09:56:04;;;;;;;2.47;1.30;;;25.90;90.90;;;;;;5033968;28;20025;-25
2022/08/02 09:58:30;;;;;;;1.95;1.30;;;25.90;90.90;;;;;;5033778;28;20079;-25
2022/08/02 10:01:00;;;;;;;2.42;1.48;;;25.90;90.90;;;;;;5034075;28;20018;-25
2022/08/02 10:03:26;;;;;;;1.40;1.30;;;25.90;90.90;;;;;;5034067;28;20025;-25
2022/08/02 10:05:53;;;;;;;2.33;1.50;;;25.90;90.80;;;;;;5016286;28;20433;-25
2022/08/02 10:08:20;;;;;;;3.60;1.50;;;25.90;90.80;;;;;;5033637;28;20033;-25
2022/08/02 10:10:47;;;;;;;1.92;1.30;;;25.90;90.80;;;;;;5033675;28;20072;-25
2022/08/02 10:13:14;;;;;;;4.32;1.33;;;25.90;90.80;;;;;;5015953;28;20026;-25
2022/08/02 10:15:40;;;;;;;2.63;1.50;;;25.90;90.80;;;;;;5033753;28;20029;-25
2022/08/02 10:18:07;;;;;;;1.85;1.63;;;26.00;90.90;;;;;;5033571;28;20031;-24
2022/08/02 10:20:42;;;;;;;2.65;1.60;;;25.90;90.80;;;;;;5033662;28;20017;-25
2022/08/02 10:23:11;;;;;;;1.58;1.38;;;25.90;90.80;;;;;;5033589;28;20023;-25
2022/08/02 10:25:38;;;;;;;3.72;1.70;;;25.90;91.10;;;;;;5033585;28;20029;-25
2022/08/02 10:28:08;;;;;;;2.15;1.35;;;26.00;90.70;;;;;;5033376;28;20034;-25
2022/08/02 10:30:41;;;;;;;2.65;1.40;;;26.00;90.70;;;;;;5033483;28;20083;-26
2022/08/02 10:33:08;;;;;;;2.33;1.58;;;26.10;90.70;;;;;;5033414;28;20035;-25
2022/08/02 10:35:36;;;;;;;2.55;1.30;;;26.10;90.60;;;;;;5033339;28;20025;-25
2022/08/02 10:38:07;;;;;;;2.63;1.50;;;26.10;90.50;;;;;;5033044;28;20029;-25
2022/08/02 10:40:48;;;;;;;1.70;1.50;;;26.10;90.50;;;;;;5033228;28;20025;-25
2022/08/02 10:43:35;;;;;;;2.25;1.63;;;26.10;90.50;;;;;;5033296;28;20394;-25
2022/08/02 10:46:30;;;;;;;3.13;1.48;;;26.10;90.50;;;;;;5033079;28;20087;-25
2022/08/02 10:49:06;;;;;;;;;;;26.10;90.50;;;;;;5033272;28;20026;-25
2022/08/02 10:51:55;;;;;;;2.45;1.55;;;26.10;90.50;;;;;;5032015;28;19911;-25
2022/08/02 10:54:24;;;;;;;1.83;1.60;;;26.10;90.50;;;;;;5032934;28;20033;-25
2022/08/02 10:56:53;;;;;;;2.30;1.42;;;26.10;90.50;;;;;;5033052;28;20471;-25
2022/08/02 10:59:39;;;;;;;3.22;1.63;;;26.10;90.40;;;;;;5032649;28;20037;-25
2022/08/02 11:02:05;;;;;;;2.05;1.30;;;26.10;90.40;;;;;;5032602;28;20565;-25
2022/08/02 11:04:35;;;;;;;2.97;1.65;;;26.10;90.40;;;;;;5032843;28;20152;-25
2022/08/02 11:07:16;;;;;;;2.00;1.67;;;26.10;90.40;;;;;;5033156;28;20041;-25
2022/08/02 11:09:46;;;;;;;1.83;1.38;;;26.10;90.40;;;;;;5032493;28;20022;-25
2022/08/02 11:12:18;;;;;;;1.83;1.50;;;26.10;90.40;;;;;;5032692;28;20033;-25
2022/08/02 11:14:56;;;;;;;3.55;1.38;;;26.10;90.30;;;;;;5032625;28;20548;-25
2022/08/02 11:17:23;;;;;;;1.35;1.10;;;26.10;90.20;;;;;;5032490;28;20034;-25
2022/08/02 11:20:10;;;;;;;3.33;1.67;;;26.10;90.30;;;;;;5032317;28;20104;-25
2022/08/02 11:22:37;;;;;;;4.88;1.52;;;26.10;90.20;;;;;;5032614;28;20097;-25
2022/08/02 11:25:21;;;;;;;2.63;1.40;;;26.10;90.20;;;;;;5032488;28;20037;-25
2022/08/02 11:27:51;;;;;;;1.88;1.45;;;26.10;90.20;;;;;;5032211;28;20100;-25
2022/08/02 11:30:18;;;;;;;2.67;1.60;;;26.20;90.00;;;;;;5032393;28;20029;-25
2022/08/02 11:32:44;;;;;;;3.00;1.67;;;26.20;90.00;;;;;;5014822;28;20470;-25
2022/08/02 11:35:10;;;;;;;1.77;1.58;;;26.20;89.80;;;;;;5032321;28;20033;-25
2022/08/02 11:37:39;;;;;;;4.18;1.55;;;26.20;89.70;;;;;;5031939;28;20018;-25
2022/08/02 11:40:08;;;;;;;2.38;1.60;;;26.20;89.70;;;;;;5055408;22;20045;-25
2022/08/02 11:42:35;;;;;;;3.15;1.58;;;26.30;89.60;;;;;;5032245;28;20061;-25
2022/08/02 11:45:03;;;;;;;1.45;1.35;;;26.30;89.30;;;;;;5032127;28;20032;-25
2022/08/02 11:47:30;;;;;;;2.17;1.40;;;26.30;89.10;;;;;;5032110;28;20086;-25
2022/08/02 11:50:08;;;;;;;1.83;1.40;;;26.30;89.10;;;;;;5031839;28;20040;-25
2022/08/02 11:52:36;;;;;;;2.70;1.60;;;26.40;89.00;;;;;;5014302;28;20033;-25
2022/08/02 11:55:02;;;;;;;4.00;1.60;;;26.40;88.80;;;;;;5031965;28;20021;-25
2022/08/02 11:57:28;;;;;;;2.58;1.48;;;26.40;88.60;;;;;;5031991;28;20112;-25
2022/08/02 11:59:55;;;;;;;2.83;1.60;;;26.40;88.30;;;;;;5031800;28;20097;-26
2022/08/02 12:02:26;;;;;;;2.00;1.40;;;26.50;88.50;;;;;;5031664;28;20029;-25
2022/08/02 12:05:06;;;;;;;2.80;1.42;;;26.50;88.40;;;;;;5031962;28;20068;-25
2022/08/02 12:07:36;;;;;;;3.63;1.50;;;26.50;88.30;;;;;;5031825;28;20310;-25
2022/08/02 12:10:08;;;;;;;2.38;1.67;;;26.60;88.20;;;;;;5031706;28;20025;-25
2022/08/02 12:12:55;;;;;;;1.98;1.35;;;26.60;88.00;;;;;;5031857;28;20022;-25
2022/08/02 12:15:43;;;;;;;2.33;1.63;;;26.70;88.00;;;;;;5031841;28;20030;-25
2022/08/02 12:21:21;;;;;;;3.05;1.33;;;26.70;87.80;;;;;;5032108;28;20028;-26
2022/08/02 12:23:47;;;;;;;1.95;1.60;;;26.70;87.80;;;;;;5031816;28;20026;-25
2022/08/02 12:26:13;;;;;;;2.92;1.50;;;26.60;87.70;;;;;;5031602;28;20033;-25
2022/08/02 12:28:39;;;;;;;4.25;1.67;;;26.60;87.80;;;;;;5031362;28;20033;-25
2022/08/02 12:31:09;;;;;;;2.60;1.55;;;26.60;87.70;;;;;;5031719;28;20022;-25
2022/08/02 12:33:46;;;;;;;3.22;1.60;;;26.50;87.70;;;;;;5031634;28;20022;-26
2022/08/02 12:36:17;;;;;;;1.90;1.50;;;26.50;88.00;;;;;;5031685;28;20505;-25
2022/08/02 12:38:57;;;;;;;2.97;1.50;;;26.50;88.10;;;;;;5031029;28;20037;-25
2022/08/02 12:41:24;;;;;;;1.58;1.48;;;26.40;88.90;;;;;;5031833;28;20411;-25
2022/08/02 12:43:51;;;;;;;2.35;1.45;;;26.40;88.20;;;;;;5031575;28;20475;-25
2022/08/02 12:46:22;;;;;;;2.60;1.70;;;26.40;88.20;;;;;;5031918;28;20116;-25
2022/08/02 12:48:48;;;;;;;1.80;1.40;;;26.40;87.90;;;;;;5031270;28;20394;-25
2022/08/02 12:51:18;;;;;;;1.50;1.40;;;26.40;88.70;;;;;;5031445;28;20018;-25
2022/08/02 12:53:44;;;;;;;2.15;1.67;;;26.50;88.00;;;;;;5031597;28;20080;-25
2022/08/02 12:56:09;;;;;;;3.72;1.50;;;26.50;87.30;;;;;;5031490;28;20426;-25
2022/08/02 12:58:48;;;;;;;1.80;1.50;;;26.50;87.40;;;;;;5031216;28;20037;-25
2022/08/02 13:01:24;;;;;;;1.65;1.48;;;26.60;87.50;;;;;;5031433;28;20414;-25
2022/08/02 13:03:50;;;;;;;2.75;1.60;;;26.60;87.40;;;;;;5031372;28;20017;-25